createdAt,value
2019-02-09T00:00:29.622Z,0
2019-02-09T00:01:39.705Z,0
2019-02-09T00:02:49.514Z,0
2019-02-09T00:03:59.880Z,0
2019-02-09T00:05:11.587Z,0
2019-02-09T00:06:21.389Z,0
2019-02-09T00:07:31.510Z,0
2019-02-09T00:08:41.562Z,0
2019-02-09T00:09:51.629Z,0
2019-02-09T00:11:01.693Z,0
2019-02-09T00:12:11.805Z,0
2019-02-09T00:13:21.878Z,0
2019-02-09T00:14:31.936Z,0
2019-02-09T00:15:41.997Z,0
2019-02-09T00:16:51.859Z,0
2019-02-09T00:18:01.978Z,0
2019-02-09T00:19:13.476Z,0
2019-02-09T00:20:23.825Z,0
2019-02-09T00:21:33.888Z,0
2019-02-09T00:22:43.948Z,0
2019-02-09T00:23:53.740Z,0
2019-02-09T00:25:03.796Z,0
2019-02-09T00:26:13.609Z,0
2019-02-09T00:27:23.402Z,0
2019-02-09T00:28:33.250Z,0
2019-02-09T00:29:50.864Z,0
2019-02-09T00:31:00.929Z,0
2019-02-09T00:32:11.000Z,0
2019-02-09T00:33:21.073Z,0
2019-02-09T00:34:32.875Z,0
2019-02-09T00:35:42.686Z,0
2019-02-09T00:36:52.755Z,0
2019-02-09T00:38:03.605Z,0
2019-02-09T00:39:13.651Z,0
2019-02-09T00:40:23.511Z,0
2019-02-09T00:41:33.323Z,0
2019-02-09T00:42:43.376Z,0
2019-02-09T00:43:53.425Z,0
2019-02-09T00:45:04.626Z,0
2019-02-09T00:46:14.682Z,0
2019-02-09T00:47:24.731Z,0
2019-02-09T00:48:34.779Z,0
2019-02-09T00:49:44.832Z,0
2019-02-09T00:50:54.357Z,0
2019-02-09T00:52:04.515Z,0
2019-02-09T00:53:13.555Z,0
2019-02-09T00:54:23.099Z,0
2019-02-09T00:55:33.154Z,0
2019-02-09T00:56:43.217Z,0
2019-02-09T00:57:53.257Z,0
2019-02-09T00:59:03.316Z,0
2019-02-09T01:00:13.466Z,0
2019-02-09T01:01:23.520Z,0
2019-02-09T01:02:33.603Z,0
2019-02-09T01:03:43.736Z,0
2019-02-09T01:04:53.792Z,0
2019-02-09T01:06:03.853Z,0
2019-02-09T01:07:13.658Z,0
2019-02-09T01:08:23.461Z,0
2019-02-09T01:09:33.565Z,0
2019-02-09T01:10:43.363Z,0
2019-02-09T01:11:53.162Z,0
2019-02-09T01:13:04.717Z,0
2019-02-09T01:14:14.506Z,0
2019-02-09T01:15:24.560Z,0
2019-02-09T01:16:34.630Z,0
2019-02-09T01:17:44.669Z,0
2019-02-09T01:18:54.484Z,0
2019-02-09T01:20:04.529Z,0
2019-02-09T01:21:14.574Z,0
2019-02-09T01:22:24.660Z,0
2019-02-09T01:23:34.730Z,0
2019-02-09T01:24:44.798Z,0
2019-02-09T01:25:54.860Z,0
2019-02-09T01:27:05.041Z,0
2019-02-09T01:28:15.103Z,0
2019-02-09T01:29:25.209Z,0
2019-02-09T01:30:35.267Z,0
2019-02-09T01:31:45.317Z,0
2019-02-09T01:32:55.118Z,0
2019-02-09T01:34:05.154Z,0
2019-02-09T01:35:15.217Z,0
2019-02-09T01:36:25.006Z,0
2019-02-09T01:37:35.084Z,0
2019-02-09T01:38:44.935Z,0
2019-02-09T01:39:54.475Z,0
2019-02-09T01:41:04.356Z,0
2019-02-09T01:42:14.137Z,0
2019-02-09T01:43:24.190Z,0
2019-02-09T01:44:33.987Z,0
2019-02-09T01:45:44.039Z,0
2019-02-09T01:46:54.079Z,0
2019-02-09T01:48:04.145Z,0
2019-02-09T01:49:14.193Z,0
2019-02-09T01:50:24.252Z,0
2019-02-09T01:51:34.287Z,0
2019-02-09T01:52:44.072Z,0
2019-02-09T01:53:53.356Z,0
2019-02-09T01:55:03.523Z,0
2019-02-09T01:56:13.064Z,0
2019-02-09T01:57:23.139Z,0
2019-02-09T01:58:32.932Z,0
2019-02-09T01:59:42.725Z,0
2019-02-09T02:00:52.842Z,0
2019-02-09T02:02:02.899Z,0
2019-02-09T02:03:12.967Z,0
2019-02-09T02:04:22.502Z,0
2019-02-09T02:05:32.542Z,0
2019-02-09T02:06:42.326Z,0
2019-02-09T02:07:52.431Z,0
2019-02-09T02:09:02.508Z,0
2019-02-09T02:10:12.304Z,0
2019-02-09T02:11:22.107Z,0
2019-02-09T02:12:32.161Z,0
2019-02-09T02:13:41.698Z,0
2019-02-09T02:14:51.736Z,0
2019-02-09T02:16:02.423Z,0
2019-02-09T02:17:12.290Z,0
2019-02-09T02:18:22.332Z,0
2019-02-09T02:19:32.423Z,0
2019-02-09T02:20:41.991Z,0
2019-02-09T02:21:51.779Z,0
2019-02-09T02:23:01.825Z,0
2019-02-09T02:24:11.632Z,0
2019-02-09T02:25:21.671Z,0
2019-02-09T02:26:31.460Z,0
2019-02-09T02:27:41.548Z,0
2019-02-09T02:28:51.349Z,0
2019-02-09T02:30:01.151Z,0
2019-02-09T02:31:11.206Z,0
2019-02-09T02:32:21.256Z,0
2019-02-09T02:33:31.345Z,0
2019-02-09T02:34:41.129Z,0
2019-02-09T02:35:51.237Z,0
2019-02-09T02:37:01.352Z,0
2019-02-09T02:38:11.422Z,0
2019-02-09T02:39:21.466Z,0
2019-02-09T02:40:31.595Z,0
2019-02-09T02:41:41.668Z,0
2019-02-09T02:42:51.449Z,0
2019-02-09T02:44:01.795Z,0
2019-02-09T02:45:11.591Z,0
2019-02-09T02:46:21.620Z,0
2019-02-09T02:47:31.414Z,0
2019-02-09T02:48:41.483Z,0
2019-02-09T02:49:51.528Z,0
2019-02-09T02:51:01.351Z,0
2019-02-09T02:52:11.410Z,0
2019-02-09T02:53:21.580Z,0
2019-02-09T02:54:31.647Z,0
2019-02-09T02:55:41.707Z,0
2019-02-09T02:56:51.258Z,0
2019-02-09T02:58:01.345Z,0
2019-02-09T02:59:11.146Z,0
2019-02-09T03:00:30.283Z,0
2019-02-09T03:01:41.806Z,0
2019-02-09T03:02:51.907Z,0
2019-02-09T03:34:39.933Z,0
2019-02-09T03:35:49.991Z,0
2019-02-09T03:37:00.056Z,0
2019-02-09T03:38:10.115Z,0
2019-02-09T03:39:19.912Z,0
2019-02-09T03:40:30.021Z,0
2019-02-09T03:41:40.139Z,0
2019-02-09T03:42:49.926Z,0
2019-02-09T03:43:59.452Z,0
2019-02-09T03:45:09.489Z,0
2019-02-09T03:46:19.532Z,0
2019-02-09T03:47:28.813Z,0
2019-02-09T03:48:38.346Z,0
2019-02-09T03:49:48.417Z,0
2019-02-09T03:50:58.459Z,0
2019-02-09T03:52:08.285Z,0
2019-02-09T03:53:18.359Z,0
2019-02-09T03:54:28.428Z,0
2019-02-09T03:55:38.257Z,0
2019-02-09T03:56:48.311Z,0
2019-02-09T03:57:58.381Z,0
2019-02-09T03:59:08.499Z,0
2019-02-09T04:00:19.455Z,0
2019-02-09T04:01:29.504Z,0
2019-02-09T04:02:39.577Z,0
2019-02-09T04:03:49.627Z,0
2019-02-09T04:04:59.735Z,0
2019-02-09T04:06:09.903Z,0
2019-02-09T04:07:19.707Z,0
2019-02-09T04:08:29.754Z,0
2019-02-09T04:09:39.806Z,0
2019-02-09T04:10:49.861Z,0
2019-02-09T04:11:59.670Z,0
2019-02-09T04:13:09.471Z,0
2019-02-09T04:14:19.303Z,0
2019-02-09T04:15:29.361Z,0
2019-02-09T04:16:39.421Z,0
2019-02-09T04:17:49.471Z,0
2019-02-09T04:18:59.530Z,0
2019-02-09T04:20:09.578Z,0
2019-02-09T04:21:19.634Z,0
2019-02-09T04:22:29.695Z,0
2019-02-09T04:23:39.742Z,0
2019-02-09T04:24:49.786Z,0
2019-02-09T04:25:59.847Z,0
2019-02-09T04:27:09.496Z,0
2019-02-09T04:28:19.293Z,0
2019-02-09T04:29:29.126Z,0
2019-02-09T04:30:39.182Z,0
2019-02-09T04:31:48.986Z,0
2019-02-09T04:32:58.803Z,0
2019-02-09T04:34:08.865Z,0
2019-02-09T04:35:18.941Z,0
2019-02-09T04:36:28.736Z,0
2019-02-09T04:37:38.808Z,0
2019-02-09T04:38:48.698Z,0
2019-02-09T04:39:58.501Z,0
2019-02-09T04:41:08.802Z,0
2019-02-09T04:42:18.866Z,0
2019-02-09T04:43:28.699Z,0
2019-02-09T04:44:38.485Z,0
2019-02-09T04:45:48.539Z,0
2019-02-09T04:46:58.344Z,0
2019-02-09T04:48:08.411Z,0
2019-02-09T04:49:18.211Z,0
2019-02-09T04:50:28.005Z,0
2019-02-09T04:51:37.792Z,0
2019-02-09T04:52:47.903Z,0
2019-02-09T04:53:57.974Z,0
2019-02-09T04:55:08.042Z,0
2019-02-09T04:56:17.685Z,0
2019-02-09T04:57:27.722Z,0
2019-02-09T04:58:37.534Z,0
2019-02-09T04:59:47.583Z,0
2019-02-09T05:00:57.748Z,0
2019-02-09T05:02:07.542Z,0
2019-02-09T05:03:17.595Z,0
2019-02-09T05:04:27.640Z,0
2019-02-09T05:05:37.713Z,0
2019-02-09T05:06:47.761Z,0
2019-02-09T05:07:57.902Z,0
2019-02-09T05:09:07.967Z,0
2019-02-09T05:10:17.775Z,0
2019-02-09T05:11:27.825Z,0
2019-02-09T05:12:37.886Z,0
2019-02-09T05:13:47.999Z,0
2019-02-09T05:14:58.050Z,0
2019-02-09T05:16:08.325Z,0
2019-02-09T05:17:18.156Z,0
2019-02-09T05:18:28.215Z,0
2019-02-09T05:19:38.299Z,0
2019-02-09T05:20:48.090Z,0
2019-02-09T05:21:58.165Z,0
2019-02-09T05:23:08.223Z,0
2019-02-09T05:24:18.011Z,0
2019-02-09T05:25:27.555Z,0
2019-02-09T05:26:37.343Z,0
2019-02-09T05:27:47.124Z,0
2019-02-09T05:28:56.920Z,0
2019-02-09T05:30:06.996Z,0
2019-02-09T05:31:25.195Z,0
2019-02-09T05:32:34.740Z,0
2019-02-09T05:33:44.816Z,0
2019-02-09T05:34:54.617Z,0
2019-02-09T05:36:04.576Z,0
2019-02-09T05:37:14.434Z,0
2019-02-09T05:38:24.503Z,0
2019-02-09T05:39:36.326Z,0
2019-02-09T05:40:46.396Z,0
2019-02-09T05:41:56.435Z,0
2019-02-09T05:43:06.246Z,0
2019-02-09T05:44:16.446Z,0
2019-02-09T05:45:26.589Z,0
2019-02-09T05:46:36.634Z,0
2019-02-09T05:47:46.742Z,0
2019-02-09T05:48:57.241Z,0
2019-02-09T05:50:07.423Z,0
2019-02-09T05:51:17.492Z,0
2019-02-09T05:52:27.288Z,0
2019-02-09T05:53:37.378Z,0
2019-02-09T05:54:47.431Z,0
2019-02-09T05:55:57.478Z,0
2019-02-09T05:57:07.526Z,0
2019-02-09T05:58:17.575Z,0
2019-02-09T05:59:27.758Z,0
2019-02-09T06:00:37.615Z,0
2019-02-09T06:01:47.693Z,0
2019-02-09T06:02:57.777Z,0
2019-02-09T06:04:07.839Z,0
2019-02-09T06:05:17.905Z,0
2019-02-09T06:06:27.438Z,0
2019-02-09T06:07:37.554Z,0
2019-02-09T06:08:47.603Z,0
2019-02-09T06:09:57.645Z,0
2019-02-09T06:11:07.442Z,0
2019-02-09T06:12:17.255Z,0
2019-02-09T06:13:27.046Z,0
2019-02-09T06:14:36.581Z,0
2019-02-09T06:15:46.628Z,0
2019-02-09T06:16:56.683Z,5
2019-02-09T06:18:06.621Z,5
2019-02-09T06:19:16.673Z,5
2019-02-09T06:20:26.729Z,5
2019-02-09T06:21:36.824Z,5
2019-02-09T06:22:46.880Z,5
2019-02-09T06:23:56.676Z,5
2019-02-09T06:25:06.463Z,10
2019-02-09T06:26:16.586Z,10
2019-02-09T06:27:26.629Z,10
2019-02-09T06:28:36.674Z,10
2019-02-09T06:29:46.711Z,10
2019-02-09T06:30:56.767Z,10
2019-02-09T06:32:07.152Z,10
2019-02-09T06:33:17.211Z,10
2019-02-09T06:34:27.237Z,10
2019-02-09T06:35:37.096Z,10
2019-02-09T06:36:47.164Z,10
2019-02-09T06:37:57.286Z,10
2019-02-09T06:39:07.087Z,15
2019-02-09T06:40:16.882Z,15
2019-02-09T06:41:27.114Z,15
2019-02-09T06:42:37.157Z,15
2019-02-09T06:43:47.222Z,15
2019-02-09T06:44:57.272Z,20
2019-02-09T06:46:07.071Z,20
2019-02-09T06:47:17.281Z,20
2019-02-09T06:48:27.323Z,20
2019-02-09T06:49:37.368Z,25
2019-02-09T06:50:47.424Z,25
2019-02-09T06:51:57.204Z,25
2019-02-09T06:53:07.030Z,30
2019-02-09T06:54:17.063Z,30
2019-02-09T06:55:26.847Z,30
2019-02-09T06:56:36.637Z,35
2019-02-09T06:57:46.434Z,35
2019-02-09T06:58:56.495Z,35
2019-02-09T07:00:06.844Z,35
2019-02-09T07:01:16.642Z,35
2019-02-09T07:02:26.420Z,40
2019-02-09T07:03:36.471Z,40
2019-02-09T07:04:46.267Z,45
2019-02-09T07:05:56.069Z,45
2019-02-09T07:07:06.127Z,45
2019-02-09T07:08:16.770Z,45
2019-02-09T07:09:26.919Z,50
2019-02-09T07:10:36.979Z,50
2019-02-09T07:11:47.034Z,50
2019-02-09T07:12:57.154Z,50
2019-02-09T07:14:07.214Z,55
2019-02-09T07:15:17.270Z,55
2019-02-09T07:16:27.397Z,55
2019-02-09T07:17:37.452Z,55
2019-02-09T07:18:47.557Z,60
2019-02-09T07:19:57.606Z,60
2019-02-09T07:21:07.404Z,60
2019-02-09T07:22:17.492Z,60
2019-02-09T07:23:27.556Z,60
2019-02-09T07:24:37.595Z,60
2019-02-09T07:25:47.396Z,60
2019-02-09T07:26:57.194Z,60
2019-02-09T07:28:07.339Z,60
2019-02-09T07:29:16.891Z,60
2019-02-09T07:30:28.737Z,60
2019-02-09T07:31:38.727Z,60
2019-02-09T07:32:48.267Z,60
2019-02-09T07:33:58.076Z,60
2019-02-09T07:35:08.177Z,65
2019-02-09T07:36:18.236Z,65
2019-02-09T07:37:28.386Z,65
2019-02-09T07:38:38.452Z,65
2019-02-09T07:39:48.284Z,65
2019-02-09T07:40:58.333Z,65
2019-02-09T07:42:08.394Z,65
2019-02-09T07:43:18.463Z,65
2019-02-09T07:44:28.535Z,65
2019-02-09T07:45:38.583Z,65
2019-02-09T07:46:48.634Z,65
2019-02-09T07:47:58.418Z,65
2019-02-09T07:49:08.466Z,65
2019-02-09T07:50:18.536Z,65
2019-02-09T07:51:28.582Z,65
2019-02-09T07:52:38.656Z,65
2019-02-09T07:53:48.710Z,65
2019-02-09T07:54:58.764Z,70
2019-02-09T07:56:09.411Z,70
2019-02-09T07:57:19.455Z,70
2019-02-09T07:58:29.090Z,70
2019-02-09T07:59:39.164Z,70
2019-02-09T08:00:49.254Z,70
2019-02-09T08:02:06.773Z,70
2019-02-09T08:03:16.314Z,70
2019-02-09T08:04:26.356Z,75
2019-02-09T08:05:36.193Z,75
2019-02-09T08:06:46.285Z,75
2019-02-09T08:07:56.346Z,80
2019-02-09T08:09:06.425Z,80
2019-02-09T08:10:16.475Z,85
2019-02-09T08:11:26.540Z,85
2019-02-09T08:12:36.612Z,90
2019-02-09T08:13:46.408Z,95
2019-02-09T08:14:56.483Z,100
2019-02-09T08:16:06.578Z,95
2019-02-09T08:17:16.395Z,100
2019-02-09T08:18:26.472Z,100
2019-02-09T08:19:36.267Z,100
2019-02-09T08:20:46.083Z,100
2019-02-09T08:21:56.266Z,95
2019-02-09T08:23:06.358Z,100
2019-02-09T08:24:17.075Z,105
2019-02-09T08:25:26.872Z,105
2019-02-09T08:26:36.962Z,110
2019-02-09T08:27:46.771Z,105
2019-02-09T08:28:56.829Z,100
2019-02-09T08:30:06.545Z,105
2019-02-09T08:31:16.626Z,110
2019-02-09T08:32:26.700Z,115
2019-02-09T08:33:36.498Z,120
2019-02-09T08:34:46.351Z,120
2019-02-09T08:35:56.406Z,115
2019-02-09T08:37:06.211Z,115
2019-02-09T08:38:16.316Z,120
2019-02-09T08:39:26.423Z,120
2019-02-09T08:40:36.488Z,120
2019-02-09T08:41:46.549Z,110
2019-02-09T08:42:56.605Z,110
2019-02-09T08:44:06.665Z,105
2019-02-09T08:45:16.500Z,110
2019-02-09T08:46:26.546Z,105
2019-02-09T08:47:36.613Z,105
2019-02-09T08:48:46.710Z,110
2019-02-09T08:49:56.512Z,110
2019-02-09T08:51:06.566Z,115
2019-02-09T08:52:16.675Z,110
2019-02-09T08:53:26.764Z,110
2019-02-09T08:54:36.861Z,120
2019-02-09T08:55:46.957Z,140
2019-02-09T08:56:56.883Z,150
2019-02-09T08:58:06.941Z,160
2019-02-09T08:59:17.050Z,140
2019-02-09T09:00:27.346Z,160
2019-02-09T09:01:36.946Z,155
2019-02-09T09:02:47.024Z,160
2019-02-09T09:03:57.081Z,160
2019-02-09T09:05:14.564Z,160
2019-02-09T09:06:24.367Z,160
2019-02-09T09:07:34.172Z,160
2019-02-09T09:08:44.233Z,160
2019-02-09T09:09:54.039Z,155
2019-02-09T09:11:04.099Z,150
2019-02-09T09:12:14.155Z,150
2019-02-09T09:13:23.962Z,150
2019-02-09T09:14:33.509Z,155
2019-02-09T09:15:43.576Z,165
2019-02-09T09:16:53.437Z,165
2019-02-09T09:18:03.758Z,160
2019-02-09T09:19:13.835Z,160
2019-02-09T09:20:23.947Z,160
2019-02-09T09:21:34.025Z,160
2019-02-09T09:22:44.080Z,155
2019-02-09T09:23:54.188Z,150
2019-02-09T09:25:04.002Z,165
2019-02-09T09:26:14.139Z,160
2019-02-09T09:27:24.202Z,145
2019-02-09T09:28:33.994Z,145
2019-02-09T09:29:43.526Z,140
2019-02-09T09:30:53.601Z,165
2019-02-09T09:32:03.705Z,155
2019-02-09T09:33:13.511Z,155
2019-02-09T09:34:23.306Z,155
2019-02-09T09:35:33.101Z,165
2019-02-09T09:36:43.186Z,165
2019-02-09T09:37:53.316Z,170
2019-02-09T09:39:03.391Z,185
2019-02-09T09:40:13.440Z,180
2019-02-09T09:41:23.480Z,155
2019-02-09T09:42:33.584Z,110
2019-02-09T09:43:43.884Z,105
2019-02-09T09:44:53.952Z,130
2019-02-09T09:46:04.019Z,165
2019-02-09T09:47:14.098Z,165
2019-02-09T09:48:24.162Z,160
2019-02-09T09:49:33.960Z,160
2019-02-09T09:50:44.013Z,160
2019-02-09T09:51:53.830Z,150
2019-02-09T09:53:03.871Z,145
2019-02-09T09:54:13.721Z,150
2019-02-09T09:55:23.767Z,150
2019-02-09T09:56:33.835Z,150
2019-02-09T09:57:43.941Z,160
2019-02-09T09:58:54.018Z,145
2019-02-09T10:00:03.885Z,170
2019-02-09T10:01:13.971Z,185
2019-02-09T10:02:24.029Z,185
2019-02-09T10:03:33.841Z,195
2019-02-09T10:04:43.653Z,190
2019-02-09T10:05:53.762Z,185
2019-02-09T10:07:03.581Z,175
2019-02-09T10:08:13.411Z,195
2019-02-09T10:09:23.566Z,195
2019-02-09T10:10:33.381Z,195
2019-02-09T10:11:42.738Z,200
2019-02-09T10:12:52.543Z,195
2019-02-09T10:14:08.651Z,190
2019-02-09T10:15:18.660Z,180
2019-02-09T10:16:28.488Z,200
2019-02-09T10:17:38.546Z,210
2019-02-09T10:18:48.644Z,205
2019-02-09T10:19:58.694Z,230
2019-02-09T10:21:08.493Z,220
2019-02-09T10:22:18.573Z,215
2019-02-09T10:23:28.412Z,190
2019-02-09T10:24:38.492Z,205
2019-02-09T10:25:48.567Z,215
2019-02-09T10:26:58.615Z,220
2019-02-09T10:28:08.584Z,230
2019-02-09T10:29:18.670Z,190
2019-02-09T10:30:28.750Z,205
2019-02-09T10:31:38.831Z,225
2019-02-09T10:32:54.068Z,190
2019-02-09T10:34:04.128Z,185
2019-02-09T10:35:14.184Z,195
2019-02-09T10:36:24.238Z,190
2019-02-09T10:37:34.060Z,175
2019-02-09T10:38:44.124Z,180
2019-02-09T10:39:53.913Z,180
2019-02-09T10:41:03.719Z,195
2019-02-09T10:42:13.546Z,220
2019-02-09T10:43:23.598Z,160
2019-02-09T10:44:33.667Z,145
2019-02-09T10:45:43.479Z,135
2019-02-09T10:46:53.635Z,140
2019-02-09T10:48:03.725Z,205
2019-02-09T10:49:13.268Z,225
2019-02-09T10:50:23.075Z,220
2019-02-09T10:51:33.172Z,215
2019-02-09T10:52:43.297Z,215
2019-02-09T10:53:53.377Z,200
2019-02-09T10:55:03.172Z,180
2019-02-09T10:56:13.253Z,160
2019-02-09T10:57:23.069Z,155
2019-02-09T10:58:33.191Z,155
2019-02-09T10:59:43.008Z,150
2019-02-09T11:00:53.088Z,145
2019-02-09T11:02:03.172Z,145
2019-02-09T11:03:12.972Z,140
2019-02-09T11:04:23.029Z,135
2019-02-09T11:05:33.097Z,120
2019-02-09T11:06:43.162Z,115
2019-02-09T11:07:53.248Z,115
2019-02-09T11:09:03.300Z,110
2019-02-09T11:10:14.562Z,105
2019-02-09T11:11:24.627Z,105
2019-02-09T11:12:34.422Z,140
2019-02-09T11:13:44.218Z,150
2019-02-09T11:14:54.041Z,165
2019-02-09T11:16:05.001Z,165
2019-02-09T11:17:15.132Z,165
2019-02-09T11:18:25.190Z,170
2019-02-09T11:19:35.261Z,175
2019-02-09T11:20:45.354Z,170
2019-02-09T11:21:55.465Z,175
2019-02-09T11:23:05.304Z,170
2019-02-09T11:24:15.368Z,155
2019-02-09T11:25:25.420Z,175
2019-02-09T11:26:35.495Z,170
2019-02-09T11:27:45.929Z,180
2019-02-09T11:28:56.010Z,175
2019-02-09T11:30:05.549Z,165
2019-02-09T11:31:15.363Z,170
2019-02-09T11:32:25.413Z,180
2019-02-09T11:33:35.474Z,185
2019-02-09T11:34:45.262Z,185
2019-02-09T11:35:55.067Z,195
2019-02-09T11:37:04.875Z,170
2019-02-09T11:38:14.929Z,170
2019-02-09T11:39:24.987Z,180
2019-02-09T11:40:34.829Z,115
2019-02-09T11:41:44.897Z,110
2019-02-09T11:42:54.700Z,115
2019-02-09T11:44:04.847Z,125
2019-02-09T11:45:14.745Z,130
2019-02-09T11:46:25.673Z,140
2019-02-09T11:47:35.903Z,145
2019-02-09T11:48:45.969Z,160
2019-02-09T11:49:56.034Z,195
2019-02-09T11:51:06.325Z,215
2019-02-09T11:52:16.395Z,185
2019-02-09T11:53:26.448Z,190
2019-02-09T11:54:36.269Z,200
2019-02-09T11:55:46.344Z,200
2019-02-09T11:56:55.903Z,210
2019-02-09T11:58:06.023Z,180
2019-02-09T11:59:15.803Z,155
2019-02-09T12:00:26.459Z,150
2019-02-09T12:01:36.541Z,170
2019-02-09T12:02:46.396Z,195
2019-02-09T12:03:56.189Z,140
2019-02-09T12:05:06.250Z,125
2019-02-09T12:06:16.407Z,120
2019-02-09T12:07:26.491Z,115
2019-02-09T12:08:36.322Z,120
2019-02-09T12:09:46.427Z,125
2019-02-09T12:10:56.222Z,175
2019-02-09T12:12:06.025Z,210
2019-02-09T12:13:16.097Z,205
2019-02-09T12:14:25.658Z,220
2019-02-09T12:15:35.220Z,215
2019-02-09T12:16:45.045Z,220
2019-02-09T12:17:55.602Z,200
2019-02-09T12:19:05.453Z,200
2019-02-09T12:20:15.576Z,180
2019-02-09T12:21:25.671Z,205
2019-02-09T12:22:35.478Z,190
2019-02-09T12:23:45.540Z,190
2019-02-09T12:24:55.608Z,220
2019-02-09T12:26:06.018Z,220
2019-02-09T12:27:15.821Z,225
2019-02-09T12:28:25.370Z,225
2019-02-09T12:29:35.436Z,215
2019-02-09T12:30:45.509Z,200
2019-02-09T12:31:55.570Z,230
2019-02-09T12:33:05.395Z,225
2019-02-09T12:34:15.509Z,225
2019-02-09T12:35:25.605Z,240
2019-02-09T12:36:35.162Z,245
2019-02-09T12:37:45.261Z,245
2019-02-09T12:38:54.808Z,240
2019-02-09T12:40:04.616Z,225
2019-02-09T12:41:14.693Z,210
2019-02-09T12:42:24.754Z,200
2019-02-09T12:43:34.343Z,215
2019-02-09T12:44:44.445Z,165
2019-02-09T12:45:54.508Z,210
2019-02-09T12:47:04.308Z,160
2019-02-09T12:48:14.630Z,140
2019-02-09T12:49:24.684Z,145
2019-02-09T12:50:34.739Z,135
2019-02-09T12:51:44.529Z,125
2019-02-09T12:52:54.338Z,135
2019-02-09T12:54:04.395Z,145
2019-02-09T12:55:14.206Z,140
2019-02-09T12:56:24.261Z,165
2019-02-09T12:57:34.395Z,180
2019-02-09T12:58:43.943Z,160
2019-02-09T12:59:53.737Z,190
2019-02-09T13:01:04.056Z,200
2019-02-09T13:02:14.134Z,195
2019-02-09T13:03:30.858Z,185
2019-02-09T13:04:41.176Z,175
2019-02-09T13:05:51.242Z,165
2019-02-09T13:07:01.300Z,175
2019-02-09T13:08:11.366Z,165
2019-02-09T13:09:21.477Z,165
2019-02-09T13:10:31.526Z,160
2019-02-09T13:11:41.577Z,160
2019-02-09T13:12:51.650Z,140
2019-02-09T13:14:01.714Z,90
2019-02-09T13:15:11.773Z,80
2019-02-09T13:16:21.838Z,80
2019-02-09T13:17:31.921Z,75
2019-02-09T13:18:42.002Z,75
2019-02-09T13:19:53.218Z,80
2019-02-09T13:21:03.330Z,75
2019-02-09T13:22:13.430Z,80
2019-02-09T13:23:23.496Z,80
2019-02-09T13:24:33.562Z,85
2019-02-09T13:25:43.360Z,85
2019-02-09T13:26:53.189Z,80
2019-02-09T13:28:03.247Z,85
2019-02-09T13:29:13.293Z,75
2019-02-09T13:30:23.398Z,70
2019-02-09T13:31:33.481Z,70
2019-02-09T13:32:43.590Z,75
2019-02-09T13:33:53.659Z,95
2019-02-09T13:35:03.594Z,100
2019-02-09T13:36:14.198Z,90
2019-02-09T13:37:24.292Z,95
2019-02-09T13:38:34.367Z,95
2019-02-09T13:39:44.427Z,95
2019-02-09T13:40:54.519Z,105
2019-02-09T13:42:04.594Z,110
2019-02-09T13:43:14.705Z,110
2019-02-09T13:44:24.785Z,125
2019-02-09T13:45:34.862Z,120
2019-02-09T13:46:44.674Z,150
2019-02-09T13:47:54.751Z,140
2019-02-09T13:49:04.849Z,150
2019-02-09T13:50:14.663Z,150
2019-02-09T13:51:24.506Z,155
2019-02-09T13:52:34.646Z,160
2019-02-09T13:53:44.705Z,150
2019-02-09T13:54:54.739Z,145
2019-02-09T13:56:04.397Z,125
2019-02-09T13:57:14.196Z,85
2019-02-09T13:58:24.010Z,75
2019-02-09T13:59:34.065Z,70
2019-02-09T14:00:44.135Z,75
2019-02-09T14:01:54.206Z,80
2019-02-09T14:03:04.311Z,70
2019-02-09T14:04:14.369Z,70
2019-02-09T14:05:24.433Z,70
2019-02-09T14:06:34.498Z,70
2019-02-09T14:07:44.607Z,70
2019-02-09T14:08:54.678Z,70
2019-02-09T14:10:04.738Z,75
2019-02-09T14:11:14.810Z,80
2019-02-09T14:12:24.885Z,85
2019-02-09T14:13:35.062Z,80
2019-02-09T14:14:45.133Z,70
2019-02-09T14:15:55.211Z,70
2019-02-09T14:17:05.286Z,70
2019-02-09T14:18:15.395Z,65
2019-02-09T14:19:25.526Z,65
2019-02-09T14:20:35.102Z,65
2019-02-09T14:21:45.177Z,65
2019-02-09T14:22:55.231Z,65
2019-02-09T14:24:05.292Z,65
2019-02-09T14:25:15.394Z,60
2019-02-09T14:26:25.466Z,60
2019-02-09T14:27:35.542Z,60
2019-02-09T14:28:45.361Z,60
2019-02-09T14:29:55.430Z,60
2019-02-09T14:31:05.265Z,55
2019-02-09T14:32:15.358Z,55
2019-02-09T14:33:25.498Z,55
2019-02-09T14:34:36.498Z,50
2019-02-09T14:35:46.326Z,50
2019-02-09T14:36:56.212Z,50
2019-02-09T14:38:06.285Z,50
2019-02-09T14:39:16.365Z,45
2019-02-09T14:40:26.505Z,45
2019-02-09T14:41:36.312Z,45
2019-02-09T14:42:46.422Z,50
2019-02-09T14:43:56.504Z,50
2019-02-09T14:45:06.358Z,45
2019-02-09T14:46:16.175Z,45
2019-02-09T14:47:26.270Z,45
2019-02-09T14:48:36.350Z,40
2019-02-09T14:49:46.156Z,40
2019-02-09T14:50:55.718Z,40
2019-02-09T14:52:07.446Z,40
2019-02-09T14:53:17.544Z,40
2019-02-09T14:54:27.606Z,35
2019-02-09T14:55:37.685Z,35
2019-02-09T14:56:47.526Z,40
2019-02-09T14:57:57.352Z,40
2019-02-09T14:59:08.570Z,40
2019-02-09T15:00:19.564Z,40
2019-02-09T15:01:29.632Z,40
2019-02-09T15:02:39.704Z,40
2019-02-09T15:03:49.768Z,40
2019-02-09T15:04:59.848Z,40
2019-02-09T15:06:10.982Z,35
2019-02-09T15:07:21.103Z,35
2019-02-09T15:08:30.950Z,30
2019-02-09T15:09:41.023Z,30
2019-02-09T15:10:50.853Z,30
2019-02-09T15:12:02.342Z,25
2019-02-09T15:13:12.423Z,20
2019-02-09T15:14:22.499Z,20
2019-02-09T15:15:32.583Z,15
2019-02-09T15:16:42.659Z,15
2019-02-09T15:17:52.739Z,10
2019-02-09T15:19:02.824Z,10
2019-02-09T15:20:13.054Z,10
2019-02-09T15:21:22.876Z,10
2019-02-09T15:22:32.759Z,10
2019-02-09T15:23:42.882Z,10
2019-02-09T15:24:53.006Z,15
2019-02-09T15:26:03.788Z,15
2019-02-09T15:27:13.895Z,10
2019-02-09T15:28:24.023Z,10
2019-02-09T15:29:35.779Z,10
2019-02-09T15:30:45.883Z,10
2019-02-09T15:31:56.027Z,10
2019-02-09T15:33:05.896Z,10
2019-02-09T15:34:20.228Z,10
2019-02-09T15:35:30.433Z,10
2019-02-09T15:36:40.595Z,10
2019-02-09T15:37:50.467Z,10
2019-02-09T15:39:02.372Z,10
2019-02-09T15:40:12.461Z,5
2019-02-09T15:41:22.578Z,5
2019-02-09T15:42:32.680Z,5
2019-02-09T15:43:42.571Z,5
2019-02-09T15:44:52.449Z,5
2019-02-09T15:46:02.538Z,5
2019-02-09T15:47:12.679Z,5
2019-02-09T15:48:22.576Z,0
2019-02-09T15:49:32.450Z,0
2019-02-09T15:50:42.568Z,0
2019-02-09T15:51:52.711Z,0
2019-02-09T15:53:02.815Z,0
2019-02-09T15:54:12.924Z,0
2019-02-09T15:55:23.026Z,0
2019-02-09T15:56:33.131Z,0
2019-02-09T15:57:43.247Z,0
2019-02-09T15:58:53.368Z,0
2019-02-09T16:00:03.503Z,0
2019-02-09T16:01:13.662Z,0
2019-02-09T16:02:23.495Z,0
2019-02-09T16:03:33.617Z,0
2019-02-09T16:04:43.457Z,0
2019-02-09T16:05:53.582Z,0
2019-02-09T16:07:03.707Z,0
2019-02-09T16:08:13.837Z,0
2019-02-09T16:09:23.685Z,0
2019-02-09T16:10:33.925Z,0
2019-02-09T16:11:44.029Z,0
2019-02-09T16:12:54.113Z,0
2019-02-09T16:14:04.274Z,0
2019-02-09T16:15:14.406Z,0
2019-02-09T16:16:24.503Z,0
2019-02-09T16:17:34.619Z,0
2019-02-09T16:18:44.468Z,0
2019-02-09T16:19:55.856Z,0
2019-02-09T16:21:06.098Z,0
2019-02-09T16:22:16.282Z,0
2019-02-09T16:23:26.371Z,0
2019-02-09T16:24:36.473Z,0
2019-02-09T16:25:46.606Z,0
2019-02-09T16:26:56.686Z,0
2019-02-09T16:28:06.578Z,0
2019-02-09T16:29:16.656Z,0
2019-02-09T16:30:28.333Z,0
2019-02-09T16:31:38.545Z,0
2019-02-09T16:32:48.702Z,0
2019-02-09T16:33:58.558Z,0
2019-02-09T16:35:08.454Z,0
2019-02-09T16:36:18.558Z,0
2019-02-09T16:37:28.687Z,0
2019-02-09T16:38:39.533Z,0
2019-02-09T16:39:49.766Z,0
2019-02-09T16:40:59.947Z,0
2019-02-09T16:42:09.587Z,0
2019-02-09T16:43:19.714Z,0
2019-02-09T16:44:29.859Z,0
2019-02-09T16:45:40.010Z,0
2019-02-09T16:46:49.875Z,0
2019-02-09T16:47:59.965Z,0
2019-02-09T16:49:10.114Z,0
2019-02-09T16:50:20.220Z,0
2019-02-09T16:51:30.470Z,0
2019-02-09T16:52:40.636Z,0
2019-02-09T16:53:50.793Z,0
2019-02-09T16:55:01.579Z,0
2019-02-09T16:56:11.683Z,0
2019-02-09T16:57:21.760Z,0
2019-02-09T16:58:31.732Z,0
2019-02-09T16:59:41.926Z,0
2019-02-09T17:00:52.079Z,0
2019-02-09T17:02:02.229Z,0
2019-02-09T17:03:12.388Z,0
2019-02-09T17:04:22.525Z,0
2019-02-09T17:05:32.615Z,0
2019-02-09T17:06:42.486Z,0
2019-02-09T17:07:52.400Z,0
2019-02-09T17:09:03.762Z,0
2019-02-09T17:10:13.915Z,0
2019-02-09T17:11:24.061Z,0
2019-02-09T17:12:34.191Z,0
2019-02-09T17:13:44.306Z,0
2019-02-09T17:14:54.126Z,0